sensor_id;sensor_type;location;lat;lon;timestamp;temperature;humidity
52189;DHT22;38162;45.926;13.608;2024-02-21T00:02:09;10.30;92.40
52189;DHT22;38162;45.926;13.608;2024-02-21T00:04:35;10.30;92.50
52189;DHT22;38162;45.926;13.608;2024-02-21T00:07:02;10.30;92.70
52189;DHT22;38162;45.926;13.608;2024-02-21T00:09:27;10.30;92.60
52189;DHT22;38162;45.926;13.608;2024-02-21T00:11:53;10.30;92.70
52189;DHT22;38162;45.926;13.608;2024-02-21T00:14:20;10.20;92.80
52189;DHT22;38162;45.926;13.608;2024-02-21T00:16:47;10.20;92.90
52189;DHT22;38162;45.926;13.608;2024-02-21T00:19:13;10.20;93.00
52189;DHT22;38162;45.926;13.608;2024-02-21T00:21:40;10.10;93.10
52189;DHT22;38162;45.926;13.608;2024-02-21T00:24:06;10.10;93.20
52189;DHT22;38162;45.926;13.608;2024-02-21T00:26:31;10.10;93.30
52189;DHT22;38162;45.926;13.608;2024-02-21T00:28:57;10.10;93.40
52189;DHT22;38162;45.926;13.608;2024-02-21T00:31:23;10.00;93.70
52189;DHT22;38162;45.926;13.608;2024-02-21T00:33:49;10.10;94.00
52189;DHT22;38162;45.926;13.608;2024-02-21T00:36:16;10.00;94.20
52189;DHT22;38162;45.926;13.608;2024-02-21T00:38:41;10.00;94.40
52189;DHT22;38162;45.926;13.608;2024-02-21T00:41:07;10.00;94.60
52189;DHT22;38162;45.926;13.608;2024-02-21T00:43:33;10.00;94.80
52189;DHT22;38162;45.926;13.608;2024-02-21T00:45:59;10.00;94.90
52189;DHT22;38162;45.926;13.608;2024-02-21T00:48:24;9.90;95.10
52189;DHT22;38162;45.926;13.608;2024-02-21T00:50:50;9.90;95.30
52189;DHT22;38162;45.926;13.608;2024-02-21T00:53:16;9.90;95.40
52189;DHT22;38162;45.926;13.608;2024-02-21T00:55:42;9.90;95.50
52189;DHT22;38162;45.926;13.608;2024-02-21T00:58:08;9.90;95.80
52189;DHT22;38162;45.926;13.608;2024-02-21T01:00:34;9.90;95.40
52189;DHT22;38162;45.926;13.608;2024-02-21T01:03:00;9.90;95.50
52189;DHT22;38162;45.926;13.608;2024-02-21T01:05:26;9.90;95.60
52189;DHT22;38162;45.926;13.608;2024-02-21T01:07:54;9.90;95.60
52189;DHT22;38162;45.926;13.608;2024-02-21T01:10:20;9.90;95.60
52189;DHT22;38162;45.926;13.608;2024-02-21T01:12:46;9.90;95.70
52189;DHT22;38162;45.926;13.608;2024-02-21T01:15:11;9.80;95.80
52189;DHT22;38162;45.926;13.608;2024-02-21T01:17:38;9.80;95.80
52189;DHT22;38162;45.926;13.608;2024-02-21T01:20:06;9.90;95.80
52189;DHT22;38162;45.926;13.608;2024-02-21T01:22:32;9.80;95.90
52189;DHT22;38162;45.926;13.608;2024-02-21T01:24:58;9.90;95.90
52189;DHT22;38162;45.926;13.608;2024-02-21T01:27:24;9.80;95.70
52189;DHT22;38162;45.926;13.608;2024-02-21T01:29:50;9.80;95.70
52189;DHT22;38162;45.926;13.608;2024-02-21T01:32:16;9.80;95.80
52189;DHT22;38162;45.926;13.608;2024-02-21T01:34:41;9.80;95.90
52189;DHT22;38162;45.926;13.608;2024-02-21T01:37:07;9.80;95.40
52189;DHT22;38162;45.926;13.608;2024-02-21T01:39:33;9.70;95.40
52189;DHT22;38162;45.926;13.608;2024-02-21T01:41:59;9.60;95.60
52189;DHT22;38162;45.926;13.608;2024-02-21T01:44:25;9.60;95.70
52189;DHT22;38162;45.926;13.608;2024-02-21T01:46:52;9.60;95.80
52189;DHT22;38162;45.926;13.608;2024-02-21T01:49:19;9.50;95.90
52189;DHT22;38162;45.926;13.608;2024-02-21T01:51:46;9.50;96.00
52189;DHT22;38162;45.926;13.608;2024-02-21T01:54:13;9.40;96.10
52189;DHT22;38162;45.926;13.608;2024-02-21T01:56:41;9.40;96.10
52189;DHT22;38162;45.926;13.608;2024-02-21T01:59:07;9.40;96.30
52189;DHT22;38162;45.926;13.608;2024-02-21T02:01:33;9.30;96.30
52189;DHT22;38162;45.926;13.608;2024-02-21T02:03:59;9.30;96.40
52189;DHT22;38162;45.926;13.608;2024-02-21T02:06:25;9.30;96.40
52189;DHT22;38162;45.926;13.608;2024-02-21T02:08:51;9.30;96.60
52189;DHT22;38162;45.926;13.608;2024-02-21T02:11:17;9.30;96.90
52189;DHT22;38162;45.926;13.608;2024-02-21T02:13:44;9.30;97.10
52189;DHT22;38162;45.926;13.608;2024-02-21T02:16:09;9.30;97.20
52189;DHT22;38162;45.926;13.608;2024-02-21T02:18:35;9.40;97.30
52189;DHT22;38162;45.926;13.608;2024-02-21T02:21:01;9.40;97.20
52189;DHT22;38162;45.926;13.608;2024-02-21T02:23:31;9.50;97.20
52189;DHT22;38162;45.926;13.608;2024-02-21T02:25:57;9.50;97.20
52189;DHT22;38162;45.926;13.608;2024-02-21T02:28:24;9.60;97.20
52189;DHT22;38162;45.926;13.608;2024-02-21T02:30:50;9.60;97.10
52189;DHT22;38162;45.926;13.608;2024-02-21T02:33:16;9.60;97.00
52189;DHT22;38162;45.926;13.608;2024-02-21T02:35:45;9.70;97.00
52189;DHT22;38162;45.926;13.608;2024-02-21T02:38:11;9.70;96.90
52189;DHT22;38162;45.926;13.608;2024-02-21T02:40:39;9.70;96.80
52189;DHT22;38162;45.926;13.608;2024-02-21T02:43:06;9.70;96.80
52189;DHT22;38162;45.926;13.608;2024-02-21T02:45:32;9.80;96.60
52189;DHT22;38162;45.926;13.608;2024-02-21T02:47:58;9.70;96.40
52189;DHT22;38162;45.926;13.608;2024-02-21T02:50:24;9.80;96.40
52189;DHT22;38162;45.926;13.608;2024-02-21T02:52:51;9.80;96.10
52189;DHT22;38162;45.926;13.608;2024-02-21T02:55:17;9.80;96.10
52189;DHT22;38162;45.926;13.608;2024-02-21T02:57:42;9.80;96.10
52189;DHT22;38162;45.926;13.608;2024-02-21T03:00:12;9.80;96.10
52189;DHT22;38162;45.926;13.608;2024-02-21T03:02:43;9.90;96.00
52189;DHT22;38162;45.926;13.608;2024-02-21T03:05:20;9.90;96.00
52189;DHT22;38162;45.926;13.608;2024-02-21T03:07:47;9.80;95.70
52189;DHT22;38162;45.926;13.608;2024-02-21T03:10:14;9.80;95.50
52189;DHT22;38162;45.926;13.608;2024-02-21T03:12:42;9.80;95.60
52189;DHT22;38162;45.926;13.608;2024-02-21T03:15:08;9.70;95.50
52189;DHT22;38162;45.926;13.608;2024-02-21T03:17:34;9.70;95.60
52189;DHT22;38162;45.926;13.608;2024-02-21T03:20:01;9.70;95.50
52189;DHT22;38162;45.926;13.608;2024-02-21T03:22:27;9.70;95.70
52189;DHT22;38162;45.926;13.608;2024-02-21T03:24:53;9.70;95.70
52189;DHT22;38162;45.926;13.608;2024-02-21T03:27:18;9.70;95.80
52189;DHT22;38162;45.926;13.608;2024-02-21T03:29:44;9.70;95.70
52189;DHT22;38162;45.926;13.608;2024-02-21T03:32:10;9.60;95.50
52189;DHT22;38162;45.926;13.608;2024-02-21T03:34:35;9.60;95.50
52189;DHT22;38162;45.926;13.608;2024-02-21T03:37:01;9.50;95.50
52189;DHT22;38162;45.926;13.608;2024-02-21T03:39:27;9.50;95.60
52189;DHT22;38162;45.926;13.608;2024-02-21T03:41:53;9.40;95.60
52189;DHT22;38162;45.926;13.608;2024-02-21T03:44:19;9.40;95.80
52189;DHT22;38162;45.926;13.608;2024-02-21T03:46:44;9.40;96.10
52189;DHT22;38162;45.926;13.608;2024-02-21T03:49:10;9.30;96.20
52189;DHT22;38162;45.926;13.608;2024-02-21T03:51:37;9.30;96.40
52189;DHT22;38162;45.926;13.608;2024-02-21T03:54:03;9.30;96.40
52189;DHT22;38162;45.926;13.608;2024-02-21T03:56:28;9.30;96.40
52189;DHT22;38162;45.926;13.608;2024-02-21T03:58:54;9.30;96.40
52189;DHT22;38162;45.926;13.608;2024-02-21T04:01:21;9.20;96.00
52189;DHT22;38162;45.926;13.608;2024-02-21T04:03:46;9.20;96.00
52189;DHT22;38162;45.926;13.608;2024-02-21T04:06:12;9.10;96.00
52189;DHT22;38162;45.926;13.608;2024-02-21T04:08:39;9.10;96.00
52189;DHT22;38162;45.926;13.608;2024-02-21T04:11:04;9.00;96.20
52189;DHT22;38162;45.926;13.608;2024-02-21T04:13:30;9.00;96.30
52189;DHT22;38162;45.926;13.608;2024-02-21T04:15:56;9.00;96.20
52189;DHT22;38162;45.926;13.608;2024-02-21T04:18:22;8.90;96.30
52189;DHT22;38162;45.926;13.608;2024-02-21T04:20:48;8.90;96.50
52189;DHT22;38162;45.926;13.608;2024-02-21T04:23:13;8.80;96.50
52189;DHT22;38162;45.926;13.608;2024-02-21T04:25:39;8.80;96.50
52189;DHT22;38162;45.926;13.608;2024-02-21T04:28:05;8.80;96.60
52189;DHT22;38162;45.926;13.608;2024-02-21T04:30:31;8.80;96.70
52189;DHT22;38162;45.926;13.608;2024-02-21T04:32:57;8.80;96.90
52189;DHT22;38162;45.926;13.608;2024-02-21T04:35:22;8.80;96.90
52189;DHT22;38162;45.926;13.608;2024-02-21T04:37:49;8.80;96.90
52189;DHT22;38162;45.926;13.608;2024-02-21T04:40:15;8.90;96.90
52189;DHT22;38162;45.926;13.608;2024-02-21T04:42:42;8.90;96.90
52189;DHT22;38162;45.926;13.608;2024-02-21T04:45:08;8.90;96.80
52189;DHT22;38162;45.926;13.608;2024-02-21T04:47:34;8.90;96.90
52189;DHT22;38162;45.926;13.608;2024-02-21T04:50:00;8.90;96.90
52189;DHT22;38162;45.926;13.608;2024-02-21T04:52:26;9.00;96.80
52189;DHT22;38162;45.926;13.608;2024-02-21T04:54:51;9.00;96.80
52189;DHT22;38162;45.926;13.608;2024-02-21T04:57:17;9.00;96.60
52189;DHT22;38162;45.926;13.608;2024-02-21T04:59:46;9.00;96.60
52189;DHT22;38162;45.926;13.608;2024-02-21T05:02:15;9.10;96.50
52189;DHT22;38162;45.926;13.608;2024-02-21T05:04:42;9.10;96.50
52189;DHT22;38162;45.926;13.608;2024-02-21T05:07:08;9.00;96.50
52189;DHT22;38162;45.926;13.608;2024-02-21T05:09:34;9.10;96.30
52189;DHT22;38162;45.926;13.608;2024-02-21T05:11:59;9.00;96.20
52189;DHT22;38162;45.926;13.608;2024-02-21T05:14:26;9.10;96.40
52189;DHT22;38162;45.926;13.608;2024-02-21T05:16:54;9.00;96.30
52189;DHT22;38162;45.926;13.608;2024-02-21T05:19:20;9.10;96.20
52189;DHT22;38162;45.926;13.608;2024-02-21T05:21:46;9.00;96.00
52189;DHT22;38162;45.926;13.608;2024-02-21T05:24:12;9.00;96.00
52189;DHT22;38162;45.926;13.608;2024-02-21T05:26:38;9.00;96.00
52189;DHT22;38162;45.926;13.608;2024-02-21T05:29:03;9.00;96.00
52189;DHT22;38162;45.926;13.608;2024-02-21T05:34:22;9.00;95.80
52189;DHT22;38162;45.926;13.608;2024-02-21T05:36:48;9.00;95.70
52189;DHT22;38162;45.926;13.608;2024-02-21T05:39:17;9.00;95.80
52189;DHT22;38162;45.926;13.608;2024-02-21T05:41:43;9.00;95.80
52189;DHT22;38162;45.926;13.608;2024-02-21T05:44:10;9.00;95.80
52189;DHT22;38162;45.926;13.608;2024-02-21T05:46:36;9.00;95.70
52189;DHT22;38162;45.926;13.608;2024-02-21T05:49:02;9.00;95.60
52189;DHT22;38162;45.926;13.608;2024-02-21T05:51:27;9.00;95.60
52189;DHT22;38162;45.926;13.608;2024-02-21T05:53:53;9.00;95.70
52189;DHT22;38162;45.926;13.608;2024-02-21T05:56:19;9.00;95.50
52189;DHT22;38162;45.926;13.608;2024-02-21T05:58:44;9.00;95.40
52189;DHT22;38162;45.926;13.608;2024-02-21T06:01:11;9.00;95.50
52189;DHT22;38162;45.926;13.608;2024-02-21T06:03:37;9.00;95.40
52189;DHT22;38162;45.926;13.608;2024-02-21T06:06:03;9.00;95.30
52189;DHT22;38162;45.926;13.608;2024-02-21T06:08:30;9.00;95.30
52189;DHT22;38162;45.926;13.608;2024-02-21T06:10:56;8.90;95.20
52189;DHT22;38162;45.926;13.608;2024-02-21T06:13:25;8.90;95.10
52189;DHT22;38162;45.926;13.608;2024-02-21T06:15:51;9.00;95.00
52189;DHT22;38162;45.926;13.608;2024-02-21T06:18:20;9.00;95.00
52189;DHT22;38162;45.926;13.608;2024-02-21T06:20:46;9.00;95.10
52189;DHT22;38162;45.926;13.608;2024-02-21T06:23:13;9.00;95.10
52189;DHT22;38162;45.926;13.608;2024-02-21T06:25:40;9.00;95.20
52189;DHT22;38162;45.926;13.608;2024-02-21T06:28:06;8.90;95.30
52189;DHT22;38162;45.926;13.608;2024-02-21T06:30:32;9.00;95.30
52189;DHT22;38162;45.926;13.608;2024-02-21T06:32:57;9.00;95.40
52189;DHT22;38162;45.926;13.608;2024-02-21T06:35:24;9.00;95.30
52189;DHT22;38162;45.926;13.608;2024-02-21T06:37:51;9.00;95.20
52189;DHT22;38162;45.926;13.608;2024-02-21T06:40:21;9.00;95.20
52189;DHT22;38162;45.926;13.608;2024-02-21T06:42:48;9.00;95.20
52189;DHT22;38162;45.926;13.608;2024-02-21T06:45:14;9.00;95.40
52189;DHT22;38162;45.926;13.608;2024-02-21T06:47:40;9.00;95.30
52189;DHT22;38162;45.926;13.608;2024-02-21T06:50:06;9.00;95.40
52189;DHT22;38162;45.926;13.608;2024-02-21T06:52:32;9.00;95.40
52189;DHT22;38162;45.926;13.608;2024-02-21T06:54:58;9.00;95.40
52189;DHT22;38162;45.926;13.608;2024-02-21T06:57:23;9.00;95.70
52189;DHT22;38162;45.926;13.608;2024-02-21T06:59:49;9.00;95.70
52189;DHT22;38162;45.926;13.608;2024-02-21T07:02:15;9.00;95.60
52189;DHT22;38162;45.926;13.608;2024-02-21T07:04:41;9.00;95.70
52189;DHT22;38162;45.926;13.608;2024-02-21T07:07:07;9.00;95.60
52189;DHT22;38162;45.926;13.608;2024-02-21T07:09:32;9.10;95.80
52189;DHT22;38162;45.926;13.608;2024-02-21T07:11:59;9.10;95.90
52189;DHT22;38162;45.926;13.608;2024-02-21T07:14:25;9.10;95.70
52189;DHT22;38162;45.926;13.608;2024-02-21T07:16:51;9.10;95.80
52189;DHT22;38162;45.926;13.608;2024-02-21T07:19:17;9.10;96.00
52189;DHT22;38162;45.926;13.608;2024-02-21T07:21:43;9.10;96.00
52189;DHT22;38162;45.926;13.608;2024-02-21T07:24:09;9.10;96.30
52189;DHT22;38162;45.926;13.608;2024-02-21T07:26:35;9.10;96.40
52189;DHT22;38162;45.926;13.608;2024-02-21T07:29:00;9.10;96.50
52189;DHT22;38162;45.926;13.608;2024-02-21T07:31:26;9.20;96.70
52189;DHT22;38162;45.926;13.608;2024-02-21T07:33:52;9.20;96.90
52189;DHT22;38162;45.926;13.608;2024-02-21T07:36:28;9.30;96.90
52189;DHT22;38162;45.926;13.608;2024-02-21T07:38:55;9.30;97.00
52189;DHT22;38162;45.926;13.608;2024-02-21T07:41:21;9.40;97.10
52189;DHT22;38162;45.926;13.608;2024-02-21T07:43:47;9.50;97.00
52189;DHT22;38162;45.926;13.608;2024-02-21T07:46:14;9.50;97.10
52189;DHT22;38162;45.926;13.608;2024-02-21T07:48:40;9.60;97.00
52189;DHT22;38162;45.926;13.608;2024-02-21T07:51:05;9.60;97.10
52189;DHT22;38162;45.926;13.608;2024-02-21T07:53:31;9.70;97.20
52189;DHT22;38162;45.926;13.608;2024-02-21T07:55:57;9.70;97.20
52189;DHT22;38162;45.926;13.608;2024-02-21T07:58:23;9.70;97.00
52189;DHT22;38162;45.926;13.608;2024-02-21T08:00:48;9.80;97.00
52189;DHT22;38162;45.926;13.608;2024-02-21T08:03:14;9.80;96.80
52189;DHT22;38162;45.926;13.608;2024-02-21T08:05:43;9.80;96.40
52189;DHT22;38162;45.926;13.608;2024-02-21T08:08:12;9.90;96.10
52189;DHT22;38162;45.926;13.608;2024-02-21T08:10:43;9.90;95.90
52189;DHT22;38162;45.926;13.608;2024-02-21T08:13:09;10.00;95.50
52189;DHT22;38162;45.926;13.608;2024-02-21T08:15:35;10.00;95.20
52189;DHT22;38162;45.926;13.608;2024-02-21T08:18:01;10.10;95.00
52189;DHT22;38162;45.926;13.608;2024-02-21T08:20:29;10.20;94.80
52189;DHT22;38162;45.926;13.608;2024-02-21T08:22:55;10.30;94.70
52189;DHT22;38162;45.926;13.608;2024-02-21T08:25:20;10.30;93.90
52189;DHT22;38162;45.926;13.608;2024-02-21T08:27:46;10.40;93.80
52189;DHT22;38162;45.926;13.608;2024-02-21T08:30:12;10.40;93.60
52189;DHT22;38162;45.926;13.608;2024-02-21T08:32:38;10.40;93.40
52189;DHT22;38162;45.926;13.608;2024-02-21T08:35:04;10.50;93.50
52189;DHT22;38162;45.926;13.608;2024-02-21T08:37:30;10.50;93.40
52189;DHT22;38162;45.926;13.608;2024-02-21T08:39:56;10.50;93.30
52189;DHT22;38162;45.926;13.608;2024-02-21T08:42:22;10.60;93.00
52189;DHT22;38162;45.926;13.608;2024-02-21T08:44:49;10.60;93.20
52189;DHT22;38162;45.926;13.608;2024-02-21T08:47:15;10.60;93.40
52189;DHT22;38162;45.926;13.608;2024-02-21T08:49:40;10.60;93.50
52189;DHT22;38162;45.926;13.608;2024-02-21T08:52:06;10.60;93.60
52189;DHT22;38162;45.926;13.608;2024-02-21T08:54:32;10.70;93.80
52189;DHT22;38162;45.926;13.608;2024-02-21T08:56:59;10.70;93.90
52189;DHT22;38162;45.926;13.608;2024-02-21T08:59:24;10.80;93.90
52189;DHT22;38162;45.926;13.608;2024-02-21T09:01:52;10.90;93.80
52189;DHT22;38162;45.926;13.608;2024-02-21T09:04:20;10.90;93.60
52189;DHT22;38162;45.926;13.608;2024-02-21T09:06:46;11.00;93.40
52189;DHT22;38162;45.926;13.608;2024-02-21T09:09:12;11.00;93.20
52189;DHT22;38162;45.926;13.608;2024-02-21T09:11:38;11.10;93.20
52189;DHT22;38162;45.926;13.608;2024-02-21T09:14:05;11.10;93.10
52189;DHT22;38162;45.926;13.608;2024-02-21T09:16:34;11.10;93.00
52189;DHT22;38162;45.926;13.608;2024-02-21T09:18:59;11.20;92.90
52189;DHT22;38162;45.926;13.608;2024-02-21T09:21:26;11.20;92.90
52189;DHT22;38162;45.926;13.608;2024-02-21T09:23:51;11.20;92.90
52189;DHT22;38162;45.926;13.608;2024-02-21T09:26:17;11.30;92.80
52189;DHT22;38162;45.926;13.608;2024-02-21T09:28:43;11.40;92.40
52189;DHT22;38162;45.926;13.608;2024-02-21T09:31:10;11.50;92.20
52189;DHT22;38162;45.926;13.608;2024-02-21T09:33:36;11.50;91.90
52189;DHT22;38162;45.926;13.608;2024-02-21T09:36:02;11.60;92.00
52189;DHT22;38162;45.926;13.608;2024-02-21T09:38:31;11.70;91.80
52189;DHT22;38162;45.926;13.608;2024-02-21T09:41:07;11.80;91.50
52189;DHT22;38162;45.926;13.608;2024-02-21T09:43:34;11.80;91.20
52189;DHT22;38162;45.926;13.608;2024-02-21T09:46:02;11.90;91.10
52189;DHT22;38162;45.926;13.608;2024-02-21T09:48:35;12.00;90.90
52189;DHT22;38162;45.926;13.608;2024-02-21T09:51:09;12.00;90.70
52189;DHT22;38162;45.926;13.608;2024-02-21T09:53:37;12.10;90.30
52189;DHT22;38162;45.926;13.608;2024-02-21T09:56:07;12.20;90.40
52189;DHT22;38162;45.926;13.608;2024-02-21T09:58:33;12.20;90.00
52189;DHT22;38162;45.926;13.608;2024-02-21T10:01:00;12.30;89.20
52189;DHT22;38162;45.926;13.608;2024-02-21T10:03:26;12.30;88.50
52189;DHT22;38162;45.926;13.608;2024-02-21T10:05:52;12.40;87.30
52189;DHT22;38162;45.926;13.608;2024-02-21T10:08:19;12.40;87.10
52189;DHT22;38162;45.926;13.608;2024-02-21T10:10:46;12.40;86.90
52189;DHT22;38162;45.926;13.608;2024-02-21T10:13:29;12.50;87.60
52189;DHT22;38162;45.926;13.608;2024-02-21T10:16:08;12.60;88.00
52189;DHT22;38162;45.926;13.608;2024-02-21T10:18:34;12.70;86.80
52189;DHT22;38162;45.926;13.608;2024-02-21T10:21:05;12.80;86.10
52189;DHT22;38162;45.926;13.608;2024-02-21T10:23:45;12.90;85.90
52189;DHT22;38162;45.926;13.608;2024-02-21T10:26:11;13.00;85.30
52189;DHT22;38162;45.926;13.608;2024-02-21T10:28:37;13.00;83.60
52189;DHT22;38162;45.926;13.608;2024-02-21T10:31:22;13.10;83.60
52189;DHT22;38162;45.926;13.608;2024-02-21T10:34:02;13.10;83.00
52189;DHT22;38162;45.926;13.608;2024-02-21T10:36:31;13.20;84.00
52189;DHT22;38162;45.926;13.608;2024-02-21T10:38:57;13.30;82.90
52189;DHT22;38162;45.926;13.608;2024-02-21T10:41:23;13.30;81.80
52189;DHT22;38162;45.926;13.608;2024-02-21T10:43:51;13.40;81.10
52189;DHT22;38162;45.926;13.608;2024-02-21T10:46:22;13.50;81.10
52189;DHT22;38162;45.926;13.608;2024-02-21T10:49:13;13.60;81.70
52189;DHT22;38162;45.926;13.608;2024-02-21T10:51:43;13.60;81.80
52189;DHT22;38162;45.926;13.608;2024-02-21T10:57:04;13.80;81.40
52189;DHT22;38162;45.926;13.608;2024-02-21T10:59:32;13.90;80.10
52189;DHT22;38162;45.926;13.608;2024-02-21T11:01:58;14.00;79.00
52189;DHT22;38162;45.926;13.608;2024-02-21T11:04:24;14.00;79.10
52189;DHT22;38162;45.926;13.608;2024-02-21T11:06:51;14.10;79.00
52189;DHT22;38162;45.926;13.608;2024-02-21T11:09:17;14.20;79.40
52189;DHT22;38162;45.926;13.608;2024-02-21T11:11:46;14.20;79.00
52189;DHT22;38162;45.926;13.608;2024-02-21T11:14:18;14.30;77.70
52189;DHT22;38162;45.926;13.608;2024-02-21T11:16:44;14.40;78.00
52189;DHT22;38162;45.926;13.608;2024-02-21T11:19:20;14.40;77.30
52189;DHT22;38162;45.926;13.608;2024-02-21T11:21:46;14.50;75.10
52189;DHT22;38162;45.926;13.608;2024-02-21T11:24:13;14.50;71.60
52189;DHT22;38162;45.926;13.608;2024-02-21T11:26:40;14.60;72.80
52189;DHT22;38162;45.926;13.608;2024-02-21T11:29:09;14.60;74.90
52189;DHT22;38162;45.926;13.608;2024-02-21T11:31:43;14.70;75.20
52189;DHT22;38162;45.926;13.608;2024-02-21T11:34:10;14.80;75.90
52189;DHT22;38162;45.926;13.608;2024-02-21T11:36:36;14.90;74.70
52189;DHT22;38162;45.926;13.608;2024-02-21T11:39:11;14.90;73.30
52189;DHT22;38162;45.926;13.608;2024-02-21T11:41:37;14.90;72.50
52189;DHT22;38162;45.926;13.608;2024-02-21T11:44:02;15.00;72.40
52189;DHT22;38162;45.926;13.608;2024-02-21T11:46:29;15.00;72.70
52189;DHT22;38162;45.926;13.608;2024-02-21T11:48:55;15.10;71.30
52189;DHT22;38162;45.926;13.608;2024-02-21T11:51:25;15.10;70.60
52189;DHT22;38162;45.926;13.608;2024-02-21T11:53:52;15.10;69.00
52189;DHT22;38162;45.926;13.608;2024-02-21T11:56:19;15.20;68.80
52189;DHT22;38162;45.926;13.608;2024-02-21T11:58:46;15.20;68.70
52189;DHT22;38162;45.926;13.608;2024-02-21T12:01:15;15.20;69.40
52189;DHT22;38162;45.926;13.608;2024-02-21T12:03:42;15.30;69.60
52189;DHT22;38162;45.926;13.608;2024-02-21T12:06:08;15.30;67.70
52189;DHT22;38162;45.926;13.608;2024-02-21T12:08:43;15.40;67.10
52189;DHT22;38162;45.926;13.608;2024-02-21T12:11:20;15.40;65.10
52189;DHT22;38162;45.926;13.608;2024-02-21T12:13:47;15.40;65.30
52189;DHT22;38162;45.926;13.608;2024-02-21T12:16:15;15.50;66.60
52189;DHT22;38162;45.926;13.608;2024-02-21T12:18:43;15.50;67.10
52189;DHT22;38162;45.926;13.608;2024-02-21T12:21:09;15.60;65.30
52189;DHT22;38162;45.926;13.608;2024-02-21T12:23:38;15.70;64.50
52189;DHT22;38162;45.926;13.608;2024-02-21T12:26:04;15.80;63.60
52189;DHT22;38162;45.926;13.608;2024-02-21T12:28:30;15.80;63.80
52189;DHT22;38162;45.926;13.608;2024-02-21T12:30:56;15.80;64.20
52189;DHT22;38162;45.926;13.608;2024-02-21T12:33:22;15.80;63.80
52189;DHT22;38162;45.926;13.608;2024-02-21T12:35:47;15.80;63.60
52189;DHT22;38162;45.926;13.608;2024-02-21T12:38:14;15.80;63.80
52189;DHT22;38162;45.926;13.608;2024-02-21T12:40:40;15.80;63.60
52189;DHT22;38162;45.926;13.608;2024-02-21T12:43:06;15.80;63.20
52189;DHT22;38162;45.926;13.608;2024-02-21T12:45:32;15.90;63.90
52189;DHT22;38162;45.926;13.608;2024-02-21T12:47:59;15.80;64.60
52189;DHT22;38162;45.926;13.608;2024-02-21T12:50:24;15.80;64.10
52189;DHT22;38162;45.926;13.608;2024-02-21T12:52:51;15.70;63.90
52189;DHT22;38162;45.926;13.608;2024-02-21T12:55:17;15.70;63.30
52189;DHT22;38162;45.926;13.608;2024-02-21T12:57:43;15.70;62.70
52189;DHT22;38162;45.926;13.608;2024-02-21T13:00:09;15.70;63.40
52189;DHT22;38162;45.926;13.608;2024-02-21T13:02:36;15.70;63.60
52189;DHT22;38162;45.926;13.608;2024-02-21T13:05:02;15.70;63.30
52189;DHT22;38162;45.926;13.608;2024-02-21T13:07:29;15.80;63.80
52189;DHT22;38162;45.926;13.608;2024-02-21T13:09:55;15.80;63.70
52189;DHT22;38162;45.926;13.608;2024-02-21T13:12:20;15.80;64.30
52189;DHT22;38162;45.926;13.608;2024-02-21T13:14:46;15.80;63.80
52189;DHT22;38162;45.926;13.608;2024-02-21T13:17:12;15.90;63.70
52189;DHT22;38162;45.926;13.608;2024-02-21T13:19:37;15.90;63.80
52189;DHT22;38162;45.926;13.608;2024-02-21T13:22:03;16.00;64.30
52189;DHT22;38162;45.926;13.608;2024-02-21T13:24:30;16.00;64.10
52189;DHT22;38162;45.926;13.608;2024-02-21T13:26:56;16.00;63.90
52189;DHT22;38162;45.926;13.608;2024-02-21T13:29:22;16.00;63.70
52189;DHT22;38162;45.926;13.608;2024-02-21T13:31:48;16.00;63.10
52189;DHT22;38162;45.926;13.608;2024-02-21T13:34:15;16.00;63.50
52189;DHT22;38162;45.926;13.608;2024-02-21T13:36:42;16.00;63.10
52189;DHT22;38162;45.926;13.608;2024-02-21T13:39:08;15.90;63.00
52189;DHT22;38162;45.926;13.608;2024-02-21T13:41:34;16.00;63.10
52189;DHT22;38162;45.926;13.608;2024-02-21T13:44:00;16.00;63.10
52189;DHT22;38162;45.926;13.608;2024-02-21T13:46:26;16.00;63.50
52189;DHT22;38162;45.926;13.608;2024-02-21T13:49:01;16.00;63.50
52189;DHT22;38162;45.926;13.608;2024-02-21T13:51:28;16.00;63.60
52189;DHT22;38162;45.926;13.608;2024-02-21T13:53:54;15.90;63.50
52189;DHT22;38162;45.926;13.608;2024-02-21T13:56:20;15.90;63.60
52189;DHT22;38162;45.926;13.608;2024-02-21T13:58:45;15.80;64.20
52189;DHT22;38162;45.926;13.608;2024-02-21T14:01:11;15.70;64.60
52189;DHT22;38162;45.926;13.608;2024-02-21T14:03:37;15.70;64.50
52189;DHT22;38162;45.926;13.608;2024-02-21T14:06:03;15.60;64.40
52189;DHT22;38162;45.926;13.608;2024-02-21T14:08:29;15.60;64.50
52189;DHT22;38162;45.926;13.608;2024-02-21T14:10:55;15.60;65.10
52189;DHT22;38162;45.926;13.608;2024-02-21T14:13:24;15.50;65.30
52189;DHT22;38162;45.926;13.608;2024-02-21T14:15:50;15.50;65.30
52189;DHT22;38162;45.926;13.608;2024-02-21T14:18:16;15.50;64.20
52189;DHT22;38162;45.926;13.608;2024-02-21T14:20:43;15.50;64.80
52189;DHT22;38162;45.926;13.608;2024-02-21T14:23:08;15.50;64.60
52189;DHT22;38162;45.926;13.608;2024-02-21T14:25:34;15.50;64.30
52189;DHT22;38162;45.926;13.608;2024-02-21T14:28:00;15.50;64.10
52189;DHT22;38162;45.926;13.608;2024-02-21T14:30:26;15.50;65.00
52189;DHT22;38162;45.926;13.608;2024-02-21T14:32:52;15.50;64.20
52189;DHT22;38162;45.926;13.608;2024-02-21T14:35:18;15.40;64.40
52189;DHT22;38162;45.926;13.608;2024-02-21T14:37:44;15.40;64.90
52189;DHT22;38162;45.926;13.608;2024-02-21T14:40:11;15.30;65.30
52189;DHT22;38162;45.926;13.608;2024-02-21T14:42:37;15.30;65.40
52189;DHT22;38162;45.926;13.608;2024-02-21T14:45:03;15.30;65.80
52189;DHT22;38162;45.926;13.608;2024-02-21T14:47:30;15.30;65.70
52189;DHT22;38162;45.926;13.608;2024-02-21T14:49:56;15.30;65.90
52189;DHT22;38162;45.926;13.608;2024-02-21T14:52:22;15.30;66.70
52189;DHT22;38162;45.926;13.608;2024-02-21T14:54:50;15.30;67.20
52189;DHT22;38162;45.926;13.608;2024-02-21T14:57:20;15.20;67.50
52189;DHT22;38162;45.926;13.608;2024-02-21T14:59:46;15.20;68.10
52189;DHT22;38162;45.926;13.608;2024-02-21T15:02:15;15.10;68.60
52189;DHT22;38162;45.926;13.608;2024-02-21T15:04:41;15.10;68.40
52189;DHT22;38162;45.926;13.608;2024-02-21T15:07:06;15.10;68.80
52189;DHT22;38162;45.926;13.608;2024-02-21T15:09:32;15.00;69.40
52189;DHT22;38162;45.926;13.608;2024-02-21T15:11:58;15.00;69.60
52189;DHT22;38162;45.926;13.608;2024-02-21T15:14:24;15.00;70.10
52189;DHT22;38162;45.926;13.608;2024-02-21T15:16:50;15.00;70.30
52189;DHT22;38162;45.926;13.608;2024-02-21T15:19:15;14.90;70.50
52189;DHT22;38162;45.926;13.608;2024-02-21T15:21:41;14.90;71.20
52189;DHT22;38162;45.926;13.608;2024-02-21T15:24:07;14.90;71.10
52189;DHT22;38162;45.926;13.608;2024-02-21T15:26:33;14.90;71.50